Time;durP1;ratioP1;P1;durP2;ratioP2;P2;SDS_P1;SDS_P2;PMS_P1;PMS_P2;Temp;Humidity;BMP_temperature;BMP_pressure;BME280_temperature;BME280_humidity;BME280_pressure;Samples;Min_cycle;Max_cycle;Signal;HPM_P1;HPM_P2
2023/04/05 00:02:09;;;;;;;1.58;0.65;;;10.30;96.70;;;;;;5082745;28;20235;-72
2023/04/05 00:04:49;;;;;;;1.58;0.65;;;10.20;96.70;;;;;;5084627;28;20090;-72
2023/04/05 00:07:18;;;;;;;3.58;0.68;;;10.20;96.70;;;;;;5090252;28;20505;-72
2023/04/05 00:09:48;;;;;;;4.28;0.73;;;10.20;96.70;;;;;;5086432;28;20119;-72
2023/04/05 00:12:16;;;;;;;1.95;0.63;;;10.20;96.70;;;;;;5082942;28;20044;-72
2023/04/05 00:14:44;;;;;;;1.98;0.80;;;10.30;96.70;;;;;;5084369;28;20085;-72
2023/04/05 00:17:13;;;;;;;2.30;0.60;;;10.20;96.70;;;;;;5081454;28;20040;-72
2023/04/05 00:19:42;;;;;;;1.98;0.75;;;10.20;96.70;;;;;;5066283;28;20165;-72
2023/04/05 00:22:10;;;;;;;2.08;0.73;;;10.20;96.70;;;;;;5094042;28;20044;-72
2023/04/05 00:24:40;;;;;;;2.38;0.80;;;10.20;96.70;;;;;;5065111;28;20043;-72
2023/04/05 00:27:10;;;;;;;2.50;0.70;;;10.20;96.70;;;;;;5072554;28;20082;-72
2023/04/05 00:29:38;;;;;;;2.55;0.80;;;10.30;96.70;;;;;;5082860;28;20043;-72
2023/04/05 00:32:07;;;;;;;1.20;0.60;;;10.40;96.70;;;;;;5086449;28;20537;-73
2023/04/05 00:34:35;;;;;;;2.40;0.63;;;10.30;96.70;;;;;;5081164;28;20043;-72
2023/04/05 00:37:04;;;;;;;1.80;0.75;;;10.30;96.70;;;;;;5084189;28;20048;-72
2023/04/05 00:39:32;;;;;;;2.58;0.82;;;10.20;96.70;;;;;;5087203;28;20040;-72
2023/04/05 00:42:03;;;;;;;1.77;0.60;;;10.20;96.70;;;;;;5090905;28;20687;-72
2023/04/05 00:44:36;;;;;;;1.48;0.60;;;10.10;96.70;;;;;;5078637;28;20151;-72
2023/04/05 00:47:08;;;;;;;1.25;0.50;;;10.10;96.70;;;;;;5083368;28;20839;-72
2023/04/05 00:49:37;;;;;;;4.65;0.60;;;10.10;96.70;;;;;;5092705;28;20046;-72
2023/04/05 00:52:05;;;;;;;1.70;0.65;;;10.10;96.70;;;;;;5057910;28;20040;-72
2023/04/05 00:54:34;;;;;;;3.25;0.82;;;10.10;96.70;;;;;;5081095;28;20047;-72
2023/04/05 00:57:05;;;;;;;1.63;0.50;;;10.10;96.70;;;;;;5077552;28;20049;-72
2023/04/05 00:59:35;;;;;;;3.88;1.17;;;10.10;96.70;;;;;;5091485;28;20444;-72
2023/04/05 01:02:12;;;;;;;4.72;0.88;;;10.20;96.70;;;;;;5085713;28;20040;-72
2023/04/05 01:04:48;;;;;;;4.07;0.88;;;10.10;96.70;;;;;;5082653;28;20055;-72
2023/04/05 01:07:24;;;;;;;;;;;10.20;96.70;;;;;;5083305;28;20159;-72
2023/04/05 01:09:56;;;;;;;1.83;0.65;;;10.10;96.70;;;;;;5081411;28;20292;-72
2023/04/05 01:12:28;;;;;;;1.73;0.63;;;10.10;96.70;;;;;;5095110;28;20036;-71
2023/04/05 01:14:58;;;;;;;2.75;0.73;;;10.00;96.70;;;;;;5085990;28;20091;-72
2023/04/05 01:17:35;;;;;;;3.42;0.80;;;10.00;96.70;;;;;;5079887;28;20161;-71
2023/04/05 01:20:10;;;;;;;3.75;1.10;;;10.00;96.70;;;;;;5081099;28;20067;-72
2023/04/05 01:23:13;;;;;;;1.92;0.70;;;10.00;96.70;;;;;;5086303;28;20138;-72
2023/04/05 01:26:08;;;;;;;2.92;0.75;;;9.90;96.70;;;;;;5071664;28;20078;-72
2023/04/05 01:29:11;;;;;;;2.67;0.73;;;10.00;96.70;;;;;;5080835;28;20047;-72
2023/04/05 01:31:48;;;;;;;4.65;0.95;;;10.00;96.70;;;;;;5058405;28;20056;-72
2023/04/05 01:34:30;;;;;;;4.43;0.70;;;9.90;96.70;;;;;;5079979;28;20088;-72
2023/04/05 01:37:05;;;;;;;2.70;0.70;;;9.80;96.70;;;;;;5071733;28;20044;-72
2023/04/05 01:39:35;;;;;;;2.97;0.95;;;9.80;96.70;;;;;;5078238;28;20048;-72
2023/04/05 01:42:05;;;;;;;3.35;0.77;;;9.70;96.70;;;;;;5083521;28;20119;-73
2023/04/05 01:44:33;;;;;;;2.30;0.90;;;9.80;96.70;;;;;;5087330;28;20062;-72
2023/04/05 01:47:03;;;;;;;2.65;0.93;;;9.70;96.70;;;;;;5063026;28;20044;-72
2023/04/05 01:49:32;;;;;;;4.88;0.90;;;9.70;96.70;;;;;;5079680;28;20621;-73
2023/04/05 01:52:00;;;;;;;1.75;0.80;;;9.70;96.70;;;;;;5078182;28;20093;-72
2023/04/05 01:54:28;;;;;;;2.58;0.52;;;9.70;96.70;;;;;;5084851;28;20601;-73
2023/04/05 01:56:56;;;;;;;2.20;0.80;;;9.70;96.70;;;;;;5075095;28;20127;-73
2023/04/05 01:59:25;;;;;;;1.63;0.60;;;9.80;96.70;;;;;;5079880;28;20047;-73
2023/04/05 02:01:54;;;;;;;4.72;1.23;;;9.70;96.70;;;;;;5079573;28;20072;-73
2023/04/05 02:04:24;;;;;;;3.78;0.82;;;9.70;96.70;;;;;;5079525;28;20485;-73
2023/04/05 02:06:52;;;;;;;3.00;0.63;;;9.70;96.70;;;;;;5073244;28;20457;-73
2023/04/05 02:09:20;;;;;;;1.77;0.70;;;9.60;96.70;;;;;;5084975;28;20081;-72
2023/04/05 02:11:48;;;;;;;2.80;0.95;;;9.70;96.70;;;;;;5079148;28;20119;-72
2023/04/05 02:14:17;;;;;;;1.38;0.70;;;9.90;96.70;;;;;;5080896;28;20059;-72
2023/04/05 02:25:09;;;;;;;2.45;0.95;;;9.90;96.70;;;;;;5073393;28;20122;-72
2023/04/05 02:27:38;;;;;;;1.38;0.63;;;9.70;96.70;;;;;;5097317;28;20083;-73
2023/04/05 02:30:07;;;;;;;1.95;0.80;;;9.60;96.70;;;;;;5088547;28;20052;-72
2023/04/05 02:32:35;;;;;;;2.72;1.08;;;9.60;96.70;;;;;;5076664;28;20102;-72
2023/04/05 02:35:04;;;;;;;2.90;0.90;;;9.60;96.70;;;;;;5086292;28;20056;-73
2023/04/05 02:37:32;;;;;;;4.07;0.90;;;9.60;96.70;;;;;;5083319;28;20074;-72
2023/04/05 02:40:00;;;;;;;3.45;1.00;;;9.60;96.70;;;;;;5072385;28;20052;-73
2023/04/05 02:42:30;;;;;;;1.88;0.73;;;9.60;96.70;;;;;;5079919;28;20041;-73
2023/04/05 02:44:58;;;;;;;2.25;0.80;;;9.60;96.70;;;;;;5074981;28;20100;-73
2023/04/05 03:49:01;;;;;;;1.92;1.13;;;9.30;96.70;;;;;;5043863;28;20076;-72
2023/04/05 03:51:32;;;;;;;4.57;1.25;;;9.30;96.70;;;;;;5059991;28;20584;-72
2023/04/05 03:54:01;;;;;;;3.38;0.90;;;9.40;96.70;;;;;;5035580;28;20056;-72
2023/04/05 03:56:33;;;;;;;2.08;1.10;;;9.40;96.70;;;;;;5041976;28;20146;-72
2023/04/05 04:20:52;;;;;;;3.45;1.52;;;9.40;96.70;;;;;;5033801;28;20422;-72
2023/04/05 04:23:37;;;;;;;4.93;1.85;;;9.40;96.70;;;;;;5043038;28;20600;-73
2023/04/05 04:26:27;;;;;;;3.15;1.38;;;9.50;96.70;;;;;;5058391;28;20524;-72
2023/04/05 04:29:15;;;;;;;2.53;1.17;;;9.40;96.70;;;;;;5036692;28;20048;-72
2023/04/05 04:35:53;;;;;;;3.58;1.00;;;9.60;96.70;;;;;;5029399;28;20064;-72
2023/04/05 04:38:53;;;;;;;2.78;0.95;;;9.60;96.70;;;;;;5037625;28;20044;-72
2023/04/05 04:41:45;;;;;;;2.13;1.10;;;9.70;96.70;;;;;;5024422;28;20053;-73
2023/04/05 04:44:38;;;;;;;1.50;0.85;;;9.60;96.70;;;;;;5043886;28;20045;-72
2023/04/05 04:47:30;;;;;;;1.73;1.00;;;9.70;96.70;;;;;;5044957;28;20047;-73
2023/04/05 04:50:25;;;;;;;3.95;1.10;;;9.60;96.70;;;;;;5036865;28;20068;-72
2023/04/05 04:52:54;;;;;;;2.88;1.00;;;9.70;96.70;;;;;;5078736;28;20067;-73
2023/04/05 04:55:25;;;;;;;4.70;1.73;;;9.70;96.70;;;;;;5069694;28;20895;-73
2023/04/05 04:57:54;;;;;;;2.00;1.20;;;9.70;96.70;;;;;;5061049;28;20510;-72
2023/04/05 05:00:22;;;;;;;3.78;1.30;;;9.70;96.70;;;;;;5062898;28;20052;-72
2023/04/05 05:02:52;;;;;;;1.63;1.00;;;9.70;96.70;;;;;;5061156;28;20139;-73
2023/04/05 05:05:23;;;;;;;3.35;1.20;;;9.70;96.70;;;;;;5052626;28;20056;-72
2023/04/05 05:07:52;;;;;;;2.42;1.02;;;9.90;96.70;;;;;;5057501;28;20070;-72
2023/04/05 05:10:21;;;;;;;3.13;1.27;;;9.90;96.70;;;;;;5051851;28;20044;-73
2023/04/05 05:12:50;;;;;;;2.53;1.30;;;9.80;96.70;;;;;;5056437;28;20132;-73
2023/04/05 05:15:19;;;;;;;4.88;1.20;;;9.80;96.70;;;;;;5054715;28;20437;-72
2023/04/05 05:17:51;;;;;;;3.05;1.17;;;9.80;96.70;;;;;;5062285;28;20115;-73
2023/04/05 05:20:21;;;;;;;6.13;1.27;;;9.80;96.70;;;;;;5064162;28;20144;-74
2023/04/05 05:22:50;;;;;;;2.17;1.38;;;9.90;96.70;;;;;;5078558;28;20047;-72
2023/04/05 05:25:18;;;;;;;3.47;1.20;;;9.80;96.70;;;;;;5048187;28;20049;-72
2023/04/05 05:27:49;;;;;;;4.20;1.60;;;9.70;96.70;;;;;;5071727;28;20082;-72
2023/04/05 05:30:19;;;;;;;3.47;1.20;;;9.70;96.70;;;;;;5071914;28;20039;-72
2023/04/05 05:32:47;;;;;;;3.97;1.15;;;9.70;96.70;;;;;;5060113;28;20127;-73
2023/04/05 05:35:16;;;;;;;3.75;1.20;;;9.90;96.70;;;;;;5075700;28;20055;-73
2023/04/05 05:37:44;;;;;;;3.40;1.00;;;9.90;96.70;;;;;;5059154;28;20068;-72
2023/04/05 05:40:12;;;;;;;6.60;1.38;;;9.90;96.70;;;;;;5043761;28;20052;-73
2023/04/05 05:42:40;;;;;;;3.95;1.10;;;9.80;96.70;;;;;;5071058;28;20429;-73
2023/04/05 05:45:11;;;;;;;2.92;1.10;;;9.80;96.70;;;;;;5066053;28;20048;-73
2023/04/05 05:47:39;;;;;;;2.83;0.90;;;9.80;96.70;;;;;;5069816;28;20074;-73
2023/04/05 05:50:08;;;;;;;3.45;1.00;;;9.70;96.70;;;;;;5072921;28;20626;-74
2023/04/05 05:52:37;;;;;;;2.40;1.15;;;9.70;96.70;;;;;;5063484;28;20048;-73
2023/04/05 05:55:06;;;;;;;4.45;1.35;;;9.80;96.70;;;;;;5091345;28;20401;-73
2023/04/05 05:57:35;;;;;;;4.00;1.40;;;9.80;96.70;;;;;;5097218;28;20048;-72
2023/04/05 06:00:08;;;;;;;3.05;1.67;;;9.90;96.70;;;;;;5079763;28;20400;-72
2023/04/05 06:02:42;;;;;;;5.25;1.50;;;9.80;96.70;;;;;;5089462;28;20628;-71
2023/04/05 06:05:10;;;;;;;4.50;1.80;;;9.90;96.70;;;;;;5091938;28;20036;-72
2023/04/05 06:07:38;;;;;;;4.18;1.40;;;9.90;96.70;;;;;;5079045;28;20040;-73
2023/04/05 06:10:07;;;;;;;5.03;1.50;;;9.90;96.70;;;;;;5062479;28;20053;-73
2023/04/05 06:12:36;;;;;;;3.17;1.40;;;9.90;96.70;;;;;;5064129;28;20036;-73
2023/04/05 06:15:05;;;;;;;3.28;1.40;;;9.90;96.70;;;;;;5089383;28;20052;-73
2023/04/05 06:17:38;;;;;;;6.88;1.33;;;9.90;96.70;;;;;;5065875;28;20047;-73
2023/04/05 06:20:12;;;;;;;6.25;1.40;;;9.90;96.70;;;;;;5094055;28;20464;-73
2023/04/05 06:22:40;;;;;;;3.80;1.40;;;9.90;96.70;;;;;;5092786;28;21443;-73
2023/04/05 06:25:11;;;;;;;4.43;1.30;;;9.90;96.70;;;;;;5081445;28;20048;-72
2023/04/05 06:27:39;;;;;;;5.07;1.20;;;10.00;96.70;;;;;;5071093;28;20048;-74
2023/04/05 06:30:08;;;;;;;4.93;1.52;;;10.10;96.70;;;;;;5085559;28;20043;-73
2023/04/05 06:32:36;;;;;;;3.78;1.25;;;10.10;96.70;;;;;;5093166;28;20039;-73
2023/04/05 06:35:06;;;;;;;3.10;1.55;;;10.20;96.70;;;;;;5094775;28;20570;-74
2023/04/05 06:37:36;;;;;;;1.95;1.00;;;10.20;96.70;;;;;;5090228;28;20129;-74
2023/04/05 06:40:05;;;;;;;4.05;1.55;;;10.10;96.70;;;;;;5089595;28;20078;-76
2023/04/05 06:42:33;;;;;;;4.43;1.20;;;10.10;96.70;;;;;;5102302;28;20063;-75
2023/04/05 06:45:05;;;;;;;11.68;2.08;;;10.10;96.70;;;;;;5076524;28;20486;-73
2023/04/05 06:47:34;;;;;;;5.22;1.50;;;10.10;96.70;;;;;;5059421;28;20048;-74
2023/04/05 06:50:03;;;;;;;4.32;1.20;;;10.20;96.70;;;;;;5085092;28;20059;-74
2023/04/05 06:52:32;;;;;;;4.20;1.30;;;10.20;96.70;;;;;;5088912;28;20058;-74
2023/04/05 06:55:02;;;;;;;4.22;1.13;;;10.10;96.70;;;;;;5093303;28;20397;-74
2023/04/05 06:57:30;;;;;;;3.97;1.23;;;10.10;96.70;;;;;;5093084;28;20036;-74
2023/04/05 06:59:58;;;;;;;5.15;1.70;;;10.20;96.70;;;;;;5093691;28;20515;-74
2023/04/05 07:02:27;;;;;;;5.88;1.65;;;10.20;96.70;;;;;;5103381;28;20047;-74
2023/04/05 07:04:59;;;;;;;3.38;1.30;;;10.20;96.70;;;;;;5097193;28;20094;-74
2023/04/05 07:07:27;;;;;;;3.58;1.33;;;10.20;96.70;;;;;;5084271;28;20413;-74
2023/04/05 07:09:55;;;;;;;5.72;1.60;;;10.30;96.70;;;;;;5091957;28;20506;-73
2023/04/05 07:12:25;;;;;;;12.90;1.90;;;10.40;96.70;;;;;;5084226;28;20109;-74
2023/04/05 07:14:53;;;;;;;3.05;1.63;;;10.40;96.70;;;;;;5092129;28;20068;-74
2023/04/05 07:17:21;;;;;;;4.53;1.42;;;10.30;96.70;;;;;;5084696;28;20501;-74
2023/04/05 07:19:49;;;;;;;2.88;1.42;;;10.40;96.70;;;;;;5090798;28;20049;-74
2023/04/05 07:22:18;;;;;;;2.80;0.95;;;10.50;96.70;;;;;;5101362;28;20039;-73
2023/04/05 07:24:46;;;;;;;6.78;1.67;;;10.50;96.70;;;;;;5084774;28;20542;-73
2023/04/05 07:27:15;;;;;;;3.22;1.00;;;10.50;96.70;;;;;;5075041;28;20048;-74
2023/04/05 07:29:47;;;;;;;3.40;1.30;;;10.50;96.70;;;;;;5084187;28;20759;-74
2023/04/05 07:32:15;;;;;;;3.45;1.38;;;10.50;96.70;;;;;;5085101;28;20052;-73
2023/04/05 07:34:43;;;;;;;2.65;1.30;;;10.60;96.70;;;;;;5084557;28;20036;-74
2023/04/05 07:37:11;;;;;;;4.05;1.70;;;10.70;96.70;;;;;;5100755;28;20044;-73
2023/04/05 07:39:39;;;;;;;2.85;1.30;;;10.70;96.70;;;;;;5093076;28;20126;-74
2023/04/05 07:42:07;;;;;;;2.80;1.23;;;10.70;96.70;;;;;;5082892;28;20068;-74
2023/04/05 07:44:35;;;;;;;3.03;1.15;;;10.70;96.70;;;;;;5080536;28;20065;-74
2023/04/05 07:47:05;;;;;;;3.38;1.20;;;10.60;96.70;;;;;;5087972;28;20055;-73
2023/04/05 07:49:33;;;;;;;3.17;1.48;;;10.70;96.70;;;;;;5092170;28;20714;-72
2023/04/05 07:52:02;;;;;;;2.35;1.08;;;10.70;96.70;;;;;;5082476;28;20058;-73
2023/04/05 07:54:32;;;;;;;10.38;2.03;;;10.60;96.70;;;;;;5100316;28;20903;-74
2023/04/05 07:57:01;;;;;;;4.82;1.27;;;10.70;96.70;;;;;;5093413;28;20817;-74
2023/04/05 07:59:29;;;;;;;2.45;1.58;;;10.70;96.70;;;;;;5088880;28;20069;-73
2023/04/05 08:01:57;;;;;;;2.58;1.45;;;10.90;96.70;;;;;;5084392;28;20055;-73
2023/04/05 08:04:42;;;;;;;1.95;1.05;;;10.90;96.70;;;;;;5075718;28;20127;-75
2023/04/05 08:07:10;;;;;;;4.45;1.48;;;11.00;96.70;;;;;;5083485;28;20634;-74
2023/04/05 08:09:38;;;;;;;3.60;1.38;;;11.10;96.70;;;;;;5081588;28;20041;-74
2023/04/05 08:12:07;;;;;;;4.85;1.58;;;11.10;96.70;;;;;;5079044;28;20048;-73
2023/04/05 08:14:35;;;;;;;4.40;1.50;;;11.10;96.70;;;;;;5084081;28;20120;-73
2023/04/05 08:17:03;;;;;;;4.07;1.40;;;11.00;96.70;;;;;;5083027;28;20101;-74
2023/04/05 08:19:31;;;;;;;1.45;1.00;;;10.90;96.70;;;;;;5083397;28;20040;-73
2023/04/05 08:22:01;;;;;;;2.85;1.30;;;10.90;96.70;;;;;;5082057;28;20136;-74
2023/04/05 08:24:29;;;;;;;4.60;1.40;;;10.90;96.70;;;;;;5089667;28;20051;-73
2023/04/05 08:26:58;;;;;;;4.00;1.60;;;10.90;96.70;;;;;;5084963;28;20136;-73
2023/04/05 08:29:26;;;;;;;4.10;1.60;;;10.90;96.70;;;;;;5082596;28;20044;-73
2023/04/05 08:31:57;;;;;;;5.68;1.30;;;10.90;96.70;;;;;;5091053;28;20039;-74
2023/04/05 08:34:25;;;;;;;4.82;1.70;;;11.10;96.70;;;;;;5080454;28;20048;-73
2023/04/05 08:36:58;;;;;;;3.35;1.50;;;11.10;96.70;;;;;;5086909;28;20058;-74
2023/04/05 08:39:27;;;;;;;3.17;1.40;;;11.30;96.70;;;;;;5093355;28;20154;-73
2023/04/05 08:42:02;;;;;;;3.78;1.30;;;11.30;96.70;;;;;;5081165;28;20160;-74
2023/04/05 08:44:32;;;;;;;4.70;1.40;;;11.30;96.70;;;;;;5073379;28;20055;-76
2023/04/05 08:47:00;;;;;;;2.95;1.20;;;11.30;96.70;;;;;;5080494;28;20086;-75
2023/04/05 08:49:28;;;;;;;3.17;1.55;;;11.40;96.70;;;;;;5088661;28;20075;-73
2023/04/05 08:51:59;;;;;;;4.85;1.50;;;11.50;96.70;;;;;;5092840;28;20073;-73
2023/04/05 08:54:29;;;;;;;4.72;1.63;;;11.60;96.70;;;;;;5080822;28;20525;-74
2023/04/05 08:56:58;;;;;;;2.33;1.08;;;11.60;96.70;;;;;;5081800;28;20044;-74
2023/04/05 08:59:27;;;;;;;4.38;1.67;;;11.70;96.70;;;;;;5085373;28;20765;-74
2023/04/05 09:01:56;;;;;;;4.03;1.30;;;11.80;96.70;;;;;;5085608;28;20126;-74
2023/04/05 09:04:30;;;;;;;4.25;1.05;;;11.80;96.70;;;;;;5064811;28;20040;-74
2023/04/05 09:07:05;;;;;;;4.05;1.58;;;11.80;96.70;;;;;;5080355;28;20072;-73
2023/04/05 09:09:36;;;;;;;4.07;1.30;;;12.00;96.70;;;;;;5089768;28;20047;-73
2023/04/05 09:12:06;;;;;;;6.70;1.65;;;12.20;96.70;;;;;;5087124;28;20051;-74
2023/04/05 09:14:36;;;;;;;4.90;1.30;;;12.30;96.70;;;;;;5083092;28;20051;-73
2023/04/05 09:17:05;;;;;;;2.00;1.38;;;12.30;96.70;;;;;;5089186;28;20474;-74
2023/04/05 09:19:33;;;;;;;2.47;1.40;;;12.40;96.60;;;;;;5082767;28;20481;-75
2023/04/05 09:22:03;;;;;;;3.00;1.30;;;12.40;96.70;;;;;;5086783;28;20525;-74
2023/04/05 09:24:42;;;;;;;3.95;1.65;;;12.30;95.90;;;;;;5081136;28;20105;-74
2023/04/05 09:27:12;;;;;;;2.05;1.40;;;12.40;96.70;;;;;;5081212;28;20052;-74
2023/04/05 09:29:42;;;;;;;2.95;1.42;;;12.50;96.60;;;;;;5082339;28;20051;-75
2023/04/05 09:32:11;;;;;;;4.00;1.40;;;12.40;96.40;;;;;;5084752;28;21074;-75
2023/04/05 09:34:41;;;;;;;6.05;1.67;;;12.40;95.50;;;;;;5088218;28;20602;-74
2023/04/05 09:37:18;;;;;;;3.15;1.63;;;12.40;95.60;;;;;;5082177;28;20645;-74
2023/04/05 09:39:50;;;;;;;3.45;1.40;;;12.40;96.40;;;;;;5091761;28;21029;-74
2023/04/05 09:42:23;;;;;;;2.53;1.42;;;12.60;96.60;;;;;;5077529;28;20077;-74
2023/04/05 09:44:53;;;;;;;2.33;1.15;;;12.70;96.10;;;;;;5085222;28;20048;-74
2023/04/05 09:47:23;;;;;;;3.47;1.17;;;12.70;96.30;;;;;;5080964;28;20071;-75
2023/04/05 09:49:56;;;;;;;4.30;1.38;;;12.80;96.70;;;;;;5073001;28;20047;-74
2023/04/05 09:52:27;;;;;;;3.55;1.10;;;12.90;96.50;;;;;;5075763;28;20447;-74
2023/04/05 09:54:58;;;;;;;2.83;1.10;;;13.10;96.70;;;;;;5086840;28;20660;-73
2023/04/05 09:57:28;;;;;;;3.08;1.30;;;13.30;96.70;;;;;;5081849;28;20521;-74
2023/04/05 09:59:56;;;;;;;3.53;1.20;;;13.40;96.20;;;;;;5094425;28;20040;-73
2023/04/05 10:02:34;;;;;;;1.60;1.42;;;13.30;94.90;;;;;;5084996;28;20044;-73
2023/04/05 10:05:06;;;;;;;3.92;1.33;;;13.30;94.80;;;;;;5086363;28;20056;-75
2023/04/05 10:07:34;;;;;;;2.55;1.20;;;13.40;95.00;;;;;;5084185;28;20044;-74
2023/04/05 10:10:05;;;;;;;5.03;1.30;;;13.50;95.20;;;;;;5088622;28;20044;-74
2023/04/05 10:12:36;;;;;;;5.80;1.50;;;13.50;94.90;;;;;;5086087;28;20398;-74
2023/04/05 10:15:05;;;;;;;3.65;1.50;;;13.50;94.20;;;;;;5094208;28;20059;-74
2023/04/05 10:17:48;;;;;;;2.05;1.40;;;13.50;94.00;;;;;;5086454;28;20042;-74
2023/04/05 10:20:18;;;;;;;4.05;1.48;;;13.50;93.90;;;;;;5084186;28;20429;-75
2023/04/05 10:23:06;;;;;;;3.08;1.27;;;13.40;93.20;;;;;;5101081;28;20047;-74
2023/04/05 10:25:48;;;;;;;3.55;1.65;;;13.10;93.20;;;;;;5092110;28;20040;-75
2023/04/05 10:28:29;;;;;;;1.80;1.48;;;13.10;94.80;;;;;;5086770;28;20583;-74
2023/04/05 10:31:09;;;;;;;3.45;1.42;;;13.10;94.90;;;;;;5084877;28;20047;-74
2023/04/05 10:33:42;;;;;;;3.92;1.42;;;13.20;95.20;;;;;;5093066;28;20574;-73
2023/04/05 10:36:18;;;;;;;2.67;1.20;;;13.20;93.50;;;;;;5088292;28;20032;-74
2023/04/05 10:38:56;;;;;;;3.20;1.25;;;13.40;93.50;;;;;;5083104;28;20044;-74
2023/04/05 10:41:32;;;;;;;1.83;1.23;;;13.60;92.80;;;;;;5084253;28;20056;-74
2023/04/05 10:44:02;;;;;;;4.07;1.20;;;13.60;92.00;;;;;;5083937;28;20062;-74
2023/04/05 10:46:44;;;;;;;4.50;1.33;;;13.50;92.30;;;;;;5092861;28;20040;-75
2023/04/05 10:49:21;;;;;;;3.28;1.42;;;13.30;93.20;;;;;;5087324;28;20052;-74
2023/04/05 10:51:50;;;;;;;2.42;1.27;;;13.10;92.70;;;;;;5075377;28;20121;-73
2023/04/05 10:54:19;;;;;;;2.25;0.95;;;13.10;93.00;;;;;;5087586;28;20074;-72
2023/04/05 10:56:49;;;;;;;2.58;1.13;;;13.10;92.50;;;;;;5081287;28;20552;-71
2023/04/05 10:59:19;;;;;;;2.72;1.38;;;13.10;92.60;;;;;;5068607;28;20033;-72
2023/04/05 11:01:48;;;;;;;4.80;1.30;;;13.10;92.60;;;;;;5081469;28;20055;-73
2023/04/05 11:04:17;;;;;;;4.90;1.48;;;13.20;92.50;;;;;;5092728;28;20039;-72
2023/04/05 11:06:49;;;;;;;1.85;1.10;;;13.50;92.90;;;;;;5086470;28;20119;-72
2023/04/05 11:09:19;;;;;;;3.08;1.20;;;13.70;93.30;;;;;;5083178;28;20047;-72
2023/04/05 11:11:51;;;;;;;2.92;1.25;;;14.00;94.00;;;;;;5084616;28;20043;-72
2023/04/05 11:14:20;;;;;;;5.53;1.40;;;14.10;92.80;;;;;;5083905;28;20039;-72
2023/04/05 11:16:55;;;;;;;3.35;1.38;;;14.20;93.20;;;;;;5089905;28;20479;-72
2023/04/05 11:19:47;;;;;;;3.28;1.77;;;14.20;93.70;;;;;;5072899;28;20139;-72
2023/04/05 11:22:25;;;;;;;6.53;1.90;;;14.20;93.60;;;;;;5075588;28;20044;-72
2023/04/05 11:24:57;;;;;;;4.45;1.75;;;14.20;93.60;;;;;;5076557;28;20411;-73
2023/04/05 11:27:28;;;;;;;2.80;1.30;;;14.30;93.50;;;;;;5075207;28;20094;-73
2023/04/05 11:29:57;;;;;;;3.35;1.30;;;14.20;92.90;;;;;;5077361;28;20077;-72
2023/04/05 11:32:39;;;;;;;2.47;1.50;;;14.20;92.30;;;;;;5075638;28;20062;-73
2023/04/05 11:35:13;;;;;;;3.42;1.55;;;14.30;92.60;;;;;;5077103;28;20063;-73
2023/04/05 11:38:07;;;;;;;3.25;1.35;;;14.20;92.50;;;;;;5078731;28;20041;-72
2023/04/05 11:40:39;;;;;;;2.90;1.48;;;14.20;92.80;;;;;;5080658;28;20040;-73
2023/04/05 11:43:11;;;;;;;2.92;1.27;;;14.20;92.20;;;;;;5079061;28;20075;-73
2023/04/05 11:45:43;;;;;;;3.15;1.30;;;14.10;92.30;;;;;;5058615;28;20133;-72
2023/04/05 11:48:13;;;;;;;8.48;2.50;;;14.10;92.80;;;;;;5054623;28;20097;-75
2023/04/05 11:50:41;;;;;;;2.45;1.40;;;14.10;92.60;;;;;;5059226;28;20045;-74
2023/04/05 11:53:14;;;;;;;6.38;1.73;;;13.80;91.70;;;;;;5074802;28;20048;-75
2023/04/05 11:55:44;;;;;;;6.10;1.55;;;13.60;91.40;;;;;;5074511;28;20041;-75
2023/04/05 11:58:17;;;;;;;5.07;1.50;;;13.70;91.30;;;;;;5081763;28;20062;-74
2023/04/05 12:00:55;;;;;;;4.43;1.60;;;14.00;91.40;;;;;;5076074;28;20130;-74
2023/04/05 12:03:23;;;;;;;1.88;1.42;;;14.30;91.80;;;;;;5064764;28;20093;-73
2023/04/05 12:05:52;;;;;;;6.10;1.60;;;14.60;91.70;;;;;;5083148;28;20040;-73
2023/04/05 12:08:22;;;;;;;3.40;1.40;;;14.80;91.30;;;;;;5089945;28;20036;-73
2023/04/05 12:10:54;;;;;;;3.67;1.90;;;14.80;90.20;;;;;;5077180;28;20239;-73
2023/04/05 12:13:32;;;;;;;5.38;1.50;;;14.70;89.20;;;;;;5080610;28;20102;-73
2023/04/05 12:16:02;;;;;;;3.50;1.67;;;14.90;89.60;;;;;;5080857;28;20481;-74
2023/04/05 12:18:32;;;;;;;5.43;1.25;;;15.20;89.80;;;;;;5082102;28;20110;-75
2023/04/05 12:21:02;;;;;;;2.72;1.30;;;15.30;88.90;;;;;;5089219;28;20105;-74
2023/04/05 12:23:35;;;;;;;5.28;1.77;;;15.60;89.10;;;;;;5086168;28;20035;-73
2023/04/05 12:26:06;;;;;;;2.60;1.77;;;15.60;88.20;;;;;;5081751;28;20060;-74
2023/04/05 12:28:52;;;;;;;5.25;1.98;;;15.60;88.00;;;;;;5071284;28;20115;-74
2023/04/05 12:31:38;;;;;;;5.97;1.80;;;15.70;88.10;;;;;;5082482;28;20048;-74
2023/04/05 12:34:26;;;;;;;9.88;1.73;;;15.90;88.60;;;;;;5047691;28;20053;-74
2023/04/05 12:36:55;;;;;;;3.22;1.70;;;15.90;88.30;;;;;;5032933;28;20056;-74
2023/04/05 12:39:30;;;;;;;4.97;2.20;;;15.80;87.20;;;;;;5028736;28;20045;-75
2023/04/05 12:41:59;;;;;;;6.43;1.80;;;15.70;86.40;;;;;;5035529;28;20110;-74
2023/04/05 12:44:30;;;;;;;4.15;1.48;;;16.00;87.40;;;;;;5035964;28;20107;-74
2023/04/05 12:47:03;;;;;;;3.33;1.75;;;16.10;87.50;;;;;;5038840;28;20106;-73
2023/04/05 12:49:36;;;;;;;6.85;1.80;;;16.10;87.50;;;;;;5009125;28;20575;-74
2023/04/05 12:52:05;;;;;;;2.88;1.63;;;16.30;87.70;;;;;;5055004;28;20060;-74
2023/04/05 12:54:33;;;;;;;14.18;2.10;;;16.40;87.50;;;;;;5043462;28;20655;-73
2023/04/05 12:57:03;;;;;;;2.13;1.30;;;16.50;87.30;;;;;;5033744;28;20136;-75
2023/04/05 12:59:33;;;;;;;3.63;1.60;;;16.50;87.90;;;;;;5014825;28;20050;-74
2023/04/05 13:02:02;;;;;;;2.95;1.58;;;16.80;88.60;;;;;;5028552;28;20049;-73
2023/04/05 13:04:30;;;;;;;3.72;1.45;;;16.90;87.10;;;;;;5042583;28;20125;-73
2023/04/05 13:06:58;;;;;;;3.40;1.55;;;16.80;86.20;;;;;;5012271;28;20041;-73
2023/04/05 13:09:27;;;;;;;2.70;1.20;;;17.00;86.60;;;;;;5028780;28;20052;-73
2023/04/05 13:11:56;;;;;;;6.65;1.50;;;17.00;86.70;;;;;;5058068;28;20881;-73
2023/04/05 13:14:24;;;;;;;2.25;1.23;;;16.90;86.00;;;;;;5080896;28;20044;-74
2023/04/05 13:16:54;;;;;;;8.68;2.17;;;16.90;85.90;;;;;;5075098;28;20047;-74
2023/04/05 13:19:22;;;;;;;2.92;1.60;;;16.70;85.80;;;;;;5095072;28;20051;-73
2023/04/05 13:21:50;;;;;;;4.85;1.65;;;16.70;86.40;;;;;;5091473;28;20074;-74
2023/04/05 13:24:18;;;;;;;4.78;1.70;;;16.80;86.20;;;;;;5085870;28;20048;-73
2023/04/05 13:26:46;;;;;;;6.50;1.58;;;16.90;86.60;;;;;;5089988;28;20047;-73
2023/04/05 13:29:15;;;;;;;3.67;1.42;;;17.00;87.00;;;;;;5082860;28;20490;-73
2023/04/05 13:31:43;;;;;;;6.95;1.83;;;17.10;86.70;;;;;;5081171;28;20039;-74
2023/04/05 13:34:13;;;;;;;2.55;1.70;;;17.10;86.30;;;;;;5080310;28;20044;-73
2023/04/05 13:36:43;;;;;;;3.50;1.30;;;17.10;86.00;;;;;;5080750;28;20052;-73
2023/04/05 13:39:11;;;;;;;4.53;1.73;;;17.10;86.50;;;;;;5080727;28;20060;-73
2023/04/05 13:41:39;;;;;;;7.60;1.95;;;17.20;86.20;;;;;;5081429;28;20437;-74
2023/04/05 13:44:07;;;;;;;10.18;2.33;;;17.20;85.60;;;;;;5073217;28;20137;-73
2023/04/05 13:46:36;;;;;;;4.28;1.65;;;17.30;85.60;;;;;;5064222;28;20040;-73
2023/04/05 13:49:04;;;;;;;6.97;1.85;;;17.40;85.70;;;;;;5080709;28;20048;-73
2023/04/05 13:51:35;;;;;;;5.35;1.60;;;17.70;85.70;;;;;;5080857;28;20040;-73
2023/04/05 13:54:04;;;;;;;4.35;1.77;;;17.60;84.80;;;;;;5081517;28;20040;-73
2023/04/05 13:56:32;;;;;;;6.38;1.50;;;18.00;85.30;;;;;;5084042;28;20050;-73
2023/04/05 13:59:01;;;;;;;2.95;1.20;;;18.30;85.30;;;;;;5099522;28;20040;-73
2023/04/05 14:01:29;;;;;;;3.55;1.23;;;18.40;84.20;;;;;;5085940;28;20116;-74
2023/04/05 14:03:57;;;;;;;3.05;1.40;;;18.70;85.00;;;;;;5084404;28;20048;-74
2023/04/05 14:06:26;;;;;;;4.53;1.60;;;18.80;83.80;;;;;;5091353;28;20080;-73
2023/04/05 14:08:56;;;;;;;2.65;1.23;;;18.80;82.40;;;;;;5090353;28;20151;-73
2023/04/05 14:11:25;;;;;;;2.92;1.42;;;18.60;83.00;;;;;;5090540;28;20638;-73
2023/04/05 14:13:54;;;;;;;1.50;1.30;;;18.90;83.20;;;;;;5092905;28;20048;-74
2023/04/05 14:16:22;;;;;;;2.58;1.30;;;19.00;82.60;;;;;;5084025;28;20039;-73
2023/04/05 14:18:51;;;;;;;4.60;1.52;;;19.30;82.70;;;;;;5072521;28;20051;-73
2023/04/05 14:21:19;;;;;;;10.00;2.00;;;19.50;81.20;;;;;;5093121;28;20044;-73
2023/04/05 14:23:49;;;;;;;3.42;1.20;;;19.60;80.70;;;;;;5076157;28;20048;-74
2023/04/05 14:26:19;;;;;;;1.83;1.40;;;19.80;80.10;;;;;;5091664;28;20044;-74
2023/04/05 14:28:47;;;;;;;4.63;1.92;;;20.30;80.40;;;;;;5084492;28;20072;-73
2023/04/05 14:31:17;;;;;;;2.38;1.17;;;20.50;80.00;;;;;;5088846;28;20054;-73
2023/04/05 14:33:46;;;;;;;2.63;1.10;;;20.30;79.70;;;;;;5089049;28;20083;-73
2023/04/05 14:36:14;;;;;;;2.42;1.30;;;20.40;79.20;;;;;;5075282;28;20079;-74
2023/04/05 14:38:42;;;;;;;5.95;1.33;;;20.70;78.90;;;;;;5083619;28;20056;-74
2023/04/05 14:41:11;;;;;;;2.92;1.00;;;20.60;77.20;;;;;;5090109;28;20035;-73
2023/04/05 14:43:41;;;;;;;2.67;1.35;;;20.70;77.90;;;;;;5103909;28;20046;-73
2023/04/05 14:46:09;;;;;;;4.93;1.48;;;20.70;76.00;;;;;;5085485;28;20055;-75
2023/04/05 14:48:38;;;;;;;3.15;1.10;;;20.90;76.40;;;;;;5094476;28;20044;-73